createdAt,value
2019-03-16T00:02:02.962Z,87.70
2019-03-16T00:04:33.808Z,87.70
2019-03-16T00:07:04.535Z,87.50
2019-03-16T00:09:35.309Z,88.30
2019-03-16T00:12:06.038Z,87.10
2019-03-16T00:14:37.020Z,87.80
2019-03-16T00:17:08.834Z,87.30
2019-03-16T00:19:40.556Z,88.00
2019-03-16T00:22:11.183Z,87.50
2019-03-16T00:24:43.555Z,88.30
2019-03-16T00:27:14.344Z,88.50
2019-03-16T00:29:45.125Z,88.50
2019-03-16T00:32:15.977Z,89.20
2019-03-16T00:34:46.846Z,89.50
2019-03-16T00:37:17.582Z,88.70
2019-03-16T00:39:48.306Z,89.70
2019-03-16T00:42:20.617Z,88.70
2019-03-16T00:44:51.602Z,88.00
2019-03-16T00:47:22.307Z,88.50
2019-03-16T00:49:52.970Z,89.20
2019-03-16T00:52:23.713Z,88.50
2019-03-16T00:54:54.515Z,88.40
2019-03-16T00:57:25.271Z,88.90
2019-03-16T00:59:57.612Z,89.20
2019-03-16T01:02:32.731Z,89.60
2019-03-16T01:05:02.511Z,89.80
2019-03-16T01:07:33.250Z,90.10
2019-03-16T01:10:04.693Z,90.10
2019-03-16T01:12:35.447Z,90.10
2019-03-16T01:15:06.601Z,90.10
2019-03-16T01:17:37.356Z,90.30
2019-03-16T01:20:11.318Z,90.30
2019-03-16T01:22:44.974Z,90.10
2019-03-16T01:25:15.743Z,90.00
2019-03-16T01:27:46.437Z,89.60
2019-03-16T01:30:17.183Z,90.00
2019-03-16T01:32:47.917Z,90.10
2019-03-16T01:35:18.666Z,90.00
2019-03-16T01:37:49.444Z,90.00
2019-03-16T01:40:20.138Z,90.10
2019-03-16T01:42:50.949Z,90.00
2019-03-16T01:45:21.591Z,90.20
2019-03-16T01:47:52.299Z,90.30
2019-03-16T01:50:23.117Z,90.40
2019-03-16T02:08:52.037Z,91.00
2019-03-16T02:11:24.775Z,91.10
2019-03-16T02:13:58.046Z,91.20
2019-03-16T02:16:28.775Z,91.30
2019-03-16T02:19:01.892Z,91.50
2019-03-16T02:21:38.817Z,91.70
2019-03-16T02:24:10.854Z,91.70
2019-03-16T02:26:41.623Z,91.60
2019-03-16T02:29:12.452Z,91.70
2019-03-16T02:31:43.367Z,91.80
2019-03-16T02:34:14.134Z,92.00
2019-03-16T02:36:57.333Z,92.00
2019-03-16T02:39:29.202Z,92.20
2019-03-16T02:42:02.200Z,92.20
2019-03-16T02:44:34.506Z,92.20
2019-03-16T02:47:05.211Z,92.20
2019-03-16T02:49:35.900Z,92.30
2019-03-16T02:52:06.620Z,92.60
2019-03-16T02:54:37.298Z,92.70
2019-03-16T02:57:08.067Z,92.70
2019-03-16T02:59:40.502Z,92.80
2019-03-16T03:02:12.264Z,92.90
2019-03-16T03:04:45.891Z,93.00
2019-03-16T03:07:16.440Z,93.20
2019-03-16T03:09:47.389Z,93.40
2019-03-16T03:12:18.958Z,93.80
2019-03-16T03:14:49.719Z,93.80
2019-03-16T03:17:24.426Z,94.10
2019-03-16T03:19:58.243Z,94.30
2019-03-16T03:22:31.750Z,94.50
2019-03-16T03:25:02.726Z,94.80
2019-03-16T03:27:33.497Z,95.20
2019-03-16T03:30:05.890Z,95.30
2019-03-16T03:32:37.270Z,95.40
2019-03-16T03:35:08.546Z,95.70
2019-03-16T03:37:44.106Z,96.00
2019-03-16T03:40:15.201Z,96.20
2019-03-16T03:42:45.889Z,96.50
2019-03-16T03:45:16.669Z,96.60
2019-03-16T03:47:47.469Z,96.70
2019-03-16T03:50:18.790Z,96.90
2019-03-16T03:52:49.875Z,97.50
2019-03-16T03:55:20.630Z,97.50
2019-03-16T03:57:51.366Z,97.40
2019-03-16T04:00:22.034Z,97.60
2019-03-16T04:02:53.120Z,97.60
2019-03-16T04:05:24.191Z,97.60
2019-03-16T04:07:55.751Z,97.50
2019-03-16T04:10:26.439Z,97.40
2019-03-16T04:12:57.165Z,97.40
2019-03-16T04:15:27.877Z,97.40
2019-03-16T04:17:58.890Z,97.40
2019-03-16T04:20:29.658Z,97.30
2019-03-16T04:23:00.621Z,97.40
2019-03-16T04:25:32.991Z,97.50
2019-03-16T04:28:03.759Z,97.60
2019-03-16T04:30:34.486Z,97.70
2019-03-16T04:33:05.171Z,97.70
2019-03-16T04:35:37.706Z,97.80
2019-03-16T04:38:09.814Z,97.90
2019-03-16T04:40:40.539Z,98.00
2019-03-16T04:43:11.318Z,98.30
2019-03-16T04:45:43.333Z,98.40
2019-03-16T04:48:14.583Z,98.50
2019-03-16T04:50:45.352Z,98.60
2019-03-16T04:53:16.154Z,98.70
2019-03-16T04:55:46.819Z,99.00
2019-03-16T04:58:17.516Z,99.00
2019-03-16T05:00:48.693Z,99.10
2019-03-16T05:03:30.952Z,99.20
2019-03-16T05:06:03.910Z,99.40
2019-03-16T05:08:37.459Z,99.40
2019-03-16T05:11:10.214Z,99.50
2019-03-16T05:13:44.378Z,99.50
2019-03-16T05:16:16.409Z,99.50
2019-03-16T05:18:47.138Z,99.70
2019-03-16T05:21:18.185Z,99.60
2019-03-16T05:23:49.398Z,99.60
2019-03-16T05:26:21.743Z,99.70
2019-03-16T05:28:52.685Z,99.70
2019-03-16T05:31:24.688Z,99.80
2019-03-16T05:33:55.895Z,99.80
2019-03-16T05:36:26.678Z,99.90
2019-03-16T05:38:57.427Z,99.90
2019-03-16T05:41:28.266Z,99.90
2019-03-16T05:43:59.145Z,99.90
2019-03-16T05:46:30.965Z,99.90
2019-03-16T05:49:02.033Z,99.90
2019-03-16T05:51:32.734Z,99.90
2019-03-16T05:54:03.482Z,99.90
2019-03-16T05:56:34.243Z,99.90
2019-03-16T05:59:05.006Z,99.90
2019-03-16T06:01:35.870Z,99.90
2019-03-16T06:04:07.786Z,99.90
2019-03-16T06:06:39.631Z,99.90
2019-03-16T06:09:10.477Z,99.90
2019-03-16T06:11:41.506Z,99.90
2019-03-16T06:14:12.238Z,99.90
2019-03-16T06:16:42.965Z,99.90
2019-03-16T06:19:15.612Z,99.90
2019-03-16T06:21:46.514Z,99.90
2019-03-16T06:24:18.203Z,99.90
2019-03-16T06:26:48.870Z,99.90
2019-03-16T06:29:19.693Z,99.90
2019-03-16T06:31:50.413Z,99.90
2019-03-16T06:34:21.881Z,99.90
2019-03-16T06:36:52.606Z,99.90
2019-03-16T06:39:24.292Z,99.90
2019-03-16T06:41:56.659Z,99.90
2019-03-16T06:44:30.162Z,99.90
2019-03-16T06:47:01.024Z,99.90
2019-03-16T06:49:34.113Z,99.90
2019-03-16T06:52:05.409Z,99.90
2019-03-16T06:54:37.079Z,99.90
2019-03-16T06:57:08.525Z,99.90
2019-03-16T06:59:39.948Z,99.90
2019-03-16T07:02:12.400Z,99.90
2019-03-16T07:04:46.454Z,99.90
2019-03-16T07:07:19.462Z,99.90
2019-03-16T07:09:51.468Z,99.90
2019-03-16T07:12:22.225Z,99.90
2019-03-16T07:14:52.998Z,99.90
2019-03-16T07:17:23.793Z,99.90
2019-03-16T07:19:54.949Z,99.90
2019-03-16T07:22:25.695Z,99.90
2019-03-16T07:24:56.404Z,99.90
2019-03-16T07:27:27.989Z,99.90
2019-03-16T07:30:03.890Z,99.90
2019-03-16T07:32:34.927Z,99.90
2019-03-16T07:35:08.343Z,99.90
2019-03-16T07:37:40.344Z,99.90
2019-03-16T07:40:11.225Z,99.90
2019-03-16T07:42:42.428Z,99.90
2019-03-16T07:45:15.122Z,99.90
2019-03-16T07:47:46.801Z,99.90
2019-03-16T07:50:19.886Z,99.90
2019-03-16T07:52:53.388Z,99.90
2019-03-16T07:55:24.281Z,99.90
2019-03-16T07:57:55.070Z,99.90
2019-03-16T08:00:25.760Z,99.90
2019-03-16T08:02:56.585Z,99.90
2019-03-16T08:05:27.366Z,99.90
2019-03-16T08:07:58.094Z,99.90
2019-03-16T08:10:28.827Z,99.90
2019-03-16T08:12:59.552Z,99.90
2019-03-16T08:15:31.861Z,99.90
2019-03-16T08:18:02.627Z,99.90
2019-03-16T08:20:33.329Z,99.90
2019-03-16T08:23:04.066Z,99.90
2019-03-16T08:25:37.421Z,99.90
2019-03-16T08:28:08.537Z,99.90
2019-03-16T08:30:39.263Z,99.90
2019-03-16T08:33:11.585Z,99.90
2019-03-16T08:35:44.267Z,99.90
2019-03-16T08:38:14.734Z,99.90
2019-03-16T08:40:45.626Z,99.90
2019-03-16T08:43:16.440Z,99.90
2019-03-16T08:45:47.139Z,99.90
2019-03-16T08:48:23.145Z,99.90
2019-03-16T08:50:53.562Z,99.90
2019-03-16T08:53:24.625Z,99.90
2019-03-16T08:55:56.974Z,99.90
2019-03-16T08:58:29.270Z,99.90
2019-03-16T09:01:01.328Z,99.90
2019-03-16T09:03:43.669Z,99.90
2019-03-16T09:06:07.447Z,99.90
2019-03-16T09:08:38.286Z,99.90
2019-03-16T09:11:10.704Z,99.90
2019-03-16T09:13:44.548Z,99.90
2019-03-16T09:16:16.654Z,99.90
2019-03-16T09:18:48.359Z,99.90
2019-03-16T09:21:19.214Z,99.90
2019-03-16T09:23:53.021Z,99.90
2019-03-16T09:26:23.874Z,99.90
2019-03-16T09:29:00.188Z,99.90
2019-03-16T09:31:28.663Z,99.90
2019-03-16T09:34:01.584Z,99.70
2019-03-16T09:36:34.013Z,99.40
2019-03-16T09:39:07.737Z,99.50
2019-03-16T09:41:38.472Z,99.50
2019-03-16T09:44:11.629Z,99.40
2019-03-16T09:46:42.726Z,98.90
2019-03-16T09:49:13.484Z,99.10
2019-03-16T09:51:46.044Z,99.10
2019-03-16T09:54:19.498Z,98.90
2019-03-16T09:57:00.554Z,98.70
2019-03-16T09:59:25.584Z,99.10
2019-03-16T10:01:56.423Z,99.30
2019-03-16T10:04:28.752Z,99.10
2019-03-16T10:06:59.514Z,99.20
2019-03-16T10:09:30.691Z,99.30
2019-03-16T10:12:01.410Z,98.90
2019-03-16T10:14:32.116Z,99.30
2019-03-16T10:17:08.938Z,98.60
2019-03-16T10:19:38.184Z,98.50
2019-03-16T10:22:08.951Z,98.10
2019-03-16T10:24:39.765Z,98.30
2019-03-16T10:27:10.522Z,97.90
2019-03-16T10:29:41.247Z,98.00
2019-03-16T10:32:15.010Z,97.60
2019-03-16T10:34:46.318Z,97.40
2019-03-16T10:37:18.119Z,97.30
2019-03-16T10:39:48.807Z,97.10
2019-03-16T10:42:19.521Z,96.90
2019-03-16T10:44:50.401Z,97.10
2019-03-16T10:47:21.162Z,96.50
2019-03-16T10:49:52.411Z,97.00
2019-03-16T10:52:23.243Z,96.60
2019-03-16T10:54:53.910Z,96.40
2019-03-16T10:57:25.171Z,96.50
2019-03-16T10:59:55.873Z,96.40
2019-03-16T11:02:26.566Z,96.40
2019-03-16T11:04:57.581Z,95.60
2019-03-16T11:07:28.973Z,96.10
2019-03-16T11:09:59.980Z,95.70
2019-03-16T11:12:32.520Z,95.00
2019-03-16T11:15:03.931Z,95.00
2019-03-16T11:17:35.425Z,94.50
2019-03-16T11:20:06.719Z,94.80
2019-03-16T11:22:37.460Z,94.90
2019-03-16T11:25:13.612Z,94.60
2019-03-16T11:27:46.096Z,95.00
2019-03-16T11:30:17.029Z,94.30
2019-03-16T11:32:49.647Z,93.50
2019-03-16T11:35:24.794Z,93.00
2019-03-16T11:38:00.051Z,93.50
2019-03-16T11:40:31.181Z,92.30
2019-03-16T11:43:02.139Z,92.40
2019-03-16T11:45:35.793Z,92.30
2019-03-16T11:48:06.794Z,91.90
2019-03-16T11:50:37.650Z,91.40
2019-03-16T11:53:08.482Z,91.80
2019-03-16T11:55:39.157Z,92.30
2019-03-16T11:58:09.929Z,92.60
2019-03-16T12:00:40.771Z,92.40
2019-03-16T12:03:12.746Z,92.10
2019-03-16T12:05:45.574Z,92.20
2019-03-16T12:08:16.371Z,91.50
2019-03-16T12:10:47.794Z,91.40
2019-03-16T12:13:19.436Z,91.00
2019-03-16T12:15:50.770Z,91.10
2019-03-16T12:18:22.009Z,91.50
2019-03-16T12:20:52.756Z,91.70
2019-03-16T12:23:23.505Z,91.60
2019-03-16T12:25:59.505Z,91.60
2019-03-16T12:28:30.417Z,92.20
2019-03-16T12:31:03.486Z,92.10
2019-03-16T12:33:34.256Z,91.90
2019-03-16T12:36:05.093Z,92.50
2019-03-16T12:38:35.925Z,92.30
2019-03-16T12:41:09.385Z,91.50
2019-03-16T12:43:40.235Z,91.40
2019-03-16T12:46:11.943Z,91.20
2019-03-16T12:48:44.402Z,91.30
2019-03-16T12:51:15.198Z,91.30
2019-03-16T12:53:57.127Z,91.10
2019-03-16T12:56:28.086Z,91.20
2019-03-16T12:59:09.798Z,91.70
2019-03-16T13:01:33.143Z,91.80
2019-03-16T13:04:03.846Z,91.50
2019-03-16T13:06:34.606Z,91.20
2019-03-16T13:09:07.767Z,91.70
2019-03-16T13:11:38.711Z,91.90
2019-03-16T13:14:10.648Z,91.80
2019-03-16T13:16:41.418Z,92.10
2019-03-16T13:19:12.630Z,92.60
2019-03-16T13:21:45.843Z,92.30
2019-03-16T13:24:20.091Z,91.90
2019-03-16T13:26:50.855Z,91.70
2019-03-16T13:29:21.600Z,91.70
2019-03-16T13:31:54.253Z,91.70
2019-03-16T13:34:25.557Z,91.60
2019-03-16T13:36:58.854Z,91.70
2019-03-16T13:39:29.570Z,91.30
2019-03-16T13:42:01.813Z,91.50
2019-03-16T13:44:32.717Z,91.50
2019-03-16T13:47:03.701Z,91.50
2019-03-16T13:49:36.131Z,91.20
2019-03-16T13:52:06.899Z,90.90
2019-03-16T13:54:37.958Z,91.30
2019-03-16T13:57:08.677Z,91.50
2019-03-16T13:59:39.747Z,91.20
2019-03-16T14:02:10.600Z,91.70
2019-03-16T14:04:42.073Z,91.90
2019-03-16T14:07:14.470Z,91.80
2019-03-16T14:09:45.385Z,91.80
2019-03-16T14:12:17.826Z,91.20
2019-03-16T14:14:50.387Z,91.10
2019-03-16T14:17:21.235Z,90.90
2019-03-16T14:19:52.091Z,91.30
2019-03-16T14:22:22.930Z,91.20
2019-03-16T14:24:53.747Z,90.60
2019-03-16T14:27:24.552Z,90.60
2019-03-16T14:29:55.334Z,90.60
2019-03-16T14:32:26.548Z,90.50
2019-03-16T14:34:57.383Z,90.30
2019-03-16T14:37:29.977Z,90.20
2019-03-16T14:40:02.085Z,90.60
2019-03-16T14:42:32.948Z,90.10
2019-03-16T14:45:06.316Z,90.20
2019-03-16T14:47:38.009Z,90.50
2019-03-16T14:50:16.476Z,90.40
2019-03-16T14:52:47.528Z,90.20
2019-03-16T14:55:18.270Z,90.30
2019-03-16T14:57:52.149Z,90.40
2019-03-16T15:00:22.959Z,90.50
2019-03-16T15:02:53.750Z,90.60
2019-03-16T15:05:24.446Z,90.80
2019-03-16T15:07:55.220Z,90.80
2019-03-16T15:10:27.632Z,90.20
2019-03-16T15:13:00.002Z,90.40
2019-03-16T15:15:30.698Z,90.60
2019-03-16T15:18:03.134Z,90.40
2019-03-16T15:20:34.172Z,90.10
2019-03-16T15:23:05.068Z,90.50
2019-03-16T15:25:38.317Z,90.20
2019-03-16T15:28:09.182Z,90.50
2019-03-16T15:30:50.720Z,90.30
2019-03-16T15:33:14.889Z,87.40
2019-03-16T15:35:45.758Z,87.80
2019-03-16T15:38:18.102Z,87.50
2019-03-16T15:40:49.087Z,87.90
2019-03-16T15:43:22.512Z,88.40
2019-03-16T15:45:56.387Z,89.00
2019-03-16T15:48:30.227Z,89.30
2019-03-16T15:51:01.017Z,89.60
2019-03-16T15:53:31.710Z,90.00
2019-03-16T15:56:02.474Z,89.90
2019-03-16T15:58:33.214Z,89.40
2019-03-16T16:01:04.161Z,89.60
2019-03-16T16:03:41.555Z,90.00
2019-03-16T16:06:14.097Z,89.90
2019-03-16T16:08:44.906Z,89.60
2019-03-16T16:11:18.593Z,88.40
2019-03-16T16:13:49.408Z,87.80
2019-03-16T16:16:20.235Z,87.50
2019-03-16T16:18:50.986Z,87.90
2019-03-16T16:21:21.812Z,86.70
2019-03-16T16:23:52.553Z,87.40
2019-03-16T16:26:24.131Z,87.80
2019-03-16T16:28:54.880Z,87.80
2019-03-16T16:31:25.605Z,87.40
2019-03-16T16:33:58.067Z,87.00
2019-03-16T16:36:30.593Z,86.80
2019-03-16T16:39:01.314Z,85.50
2019-03-16T16:41:34.166Z,85.20
2019-03-16T16:44:04.766Z,84.40
2019-03-16T16:46:35.580Z,85.10
2019-03-16T16:49:06.345Z,85.10
2019-03-16T16:51:38.806Z,85.10
2019-03-16T16:54:09.664Z,84.70
2019-03-16T16:56:40.644Z,84.60
2019-03-16T16:59:12.428Z,84.30
2019-03-16T17:01:43.236Z,84.20
2019-03-16T17:04:14.119Z,84.20
2019-03-16T17:06:44.864Z,83.80
2019-03-16T17:09:15.708Z,83.10
2019-03-16T17:11:47.864Z,83.80
2019-03-16T17:14:18.783Z,83.70
2019-03-16T17:16:49.596Z,84.40
2019-03-16T17:19:20.434Z,83.90
2019-03-16T17:21:51.252Z,83.40
2019-03-16T17:24:22.201Z,83.00
2019-03-16T17:26:52.900Z,82.90
2019-03-16T17:29:23.613Z,82.70
2019-03-16T17:31:54.296Z,82.80
2019-03-16T17:34:25.037Z,82.90
2019-03-16T17:36:55.915Z,82.80
2019-03-16T17:39:26.809Z,83.10
2019-03-16T17:41:57.586Z,81.90
2019-03-16T17:44:28.465Z,80.70
2019-03-16T17:46:59.301Z,80.90
2019-03-16T17:49:30.757Z,80.60
2019-03-16T17:52:01.461Z,81.30
2019-03-16T17:54:33.285Z,81.50
2019-03-16T17:57:05.978Z,82.10
2019-03-16T17:59:36.530Z,82.80
2019-03-16T18:02:09.806Z,82.70
2019-03-16T18:04:42.274Z,83.10
2019-03-16T18:07:24.348Z,83.50
2019-03-16T18:10:05.003Z,84.10
2019-03-16T18:13:05.281Z,84.80
2019-03-16T18:15:26.222Z,85.30
2019-03-16T18:18:25.139Z,86.00
2019-03-16T18:21:09.450Z,86.20
2019-03-16T18:31:40.165Z,87.80
2019-03-16T18:34:13.964Z,88.40
2019-03-16T18:36:44.865Z,88.90
2019-03-16T18:39:18.635Z,89.20
2019-03-16T18:41:49.818Z,89.90
2019-03-16T18:44:22.289Z,89.80
2019-03-16T18:46:54.747Z,89.80
2019-03-16T18:49:25.500Z,90.00
2019-03-16T18:51:57.306Z,90.10
2019-03-16T18:54:27.995Z,90.50
2019-03-16T18:56:58.838Z,90.60
2019-03-16T18:59:29.591Z,90.90
2019-03-16T19:02:00.507Z,91.10
2019-03-16T19:04:31.351Z,90.90
2019-03-16T19:07:02.225Z,90.90
2019-03-16T19:09:34.806Z,91.00
2019-03-16T19:12:05.684Z,91.00
2019-03-16T19:14:47.234Z,91.20
2019-03-16T19:17:18.444Z,91.20
2019-03-16T19:19:52.301Z,91.20
2019-03-16T19:22:42.474Z,91.20
2019-03-16T19:25:14.163Z,91.30
2019-03-16T19:27:45.534Z,91.40
2019-03-16T19:30:16.566Z,91.40
2019-03-16T19:32:47.770Z,91.20
2019-03-16T19:35:19.158Z,91.40
2019-03-16T19:37:50.801Z,91.40
2019-03-16T19:40:23.042Z,91.20
2019-03-16T19:42:54.560Z,91.10
2019-03-16T19:45:26.574Z,91.40
2019-03-16T19:47:58.833Z,91.40
2019-03-16T19:50:30.234Z,91.50
2019-03-16T19:53:02.425Z,91.60
2019-03-16T19:55:33.693Z,91.80
2019-03-16T19:58:06.260Z,91.50
2019-03-16T20:00:38.039Z,91.50
2019-03-16T20:03:09.201Z,91.60
2019-03-16T20:05:40.875Z,91.40
2019-03-16T20:08:13.110Z,91.30
2019-03-16T20:10:45.517Z,91.40
2019-03-16T20:13:16.932Z,91.30
2019-03-16T20:15:48.994Z,90.90
2019-03-16T20:18:21.175Z,90.90
2019-03-16T20:20:52.947Z,91.10
2019-03-16T20:23:25.534Z,90.90
2019-03-16T20:25:57.476Z,91.20
2019-03-16T20:28:31.210Z,90.90
2019-03-16T20:31:03.043Z,90.90
2019-03-16T20:33:34.555Z,91.10
2019-03-16T20:36:05.753Z,91.20
2019-03-16T20:38:38.158Z,90.90
2019-03-16T20:41:10.223Z,90.90
2019-03-16T20:43:42.227Z,90.80
2019-03-16T20:46:14.253Z,90.60
2019-03-16T20:48:47.118Z,90.70
2019-03-16T20:51:21.689Z,90.60
2019-03-16T20:53:54.096Z,90.60
2019-03-16T20:56:26.742Z,90.60
2019-03-16T20:59:02.357Z,90.60
2019-03-16T21:01:34.916Z,90.20
2019-03-16T21:04:28.098Z,90.00
2019-03-16T21:07:01.419Z,90.30
2019-03-16T21:09:33.856Z,90.30
2019-03-16T21:12:12.443Z,90.40
2019-03-16T21:14:47.601Z,90.60
2019-03-16T21:17:23.467Z,90.40
2019-03-16T21:19:56.748Z,90.30
2019-03-16T21:22:36.257Z,90.00
2019-03-16T21:25:02.714Z,90.30
2019-03-16T21:27:36.454Z,90.10
2019-03-16T21:30:09.959Z,90.10
2019-03-16T21:32:43.273Z,90.30
2019-03-16T21:35:17.072Z,90.30
2019-03-16T21:37:49.839Z,90.40
2019-03-16T21:40:21.733Z,90.50
2019-03-16T21:42:56.801Z,90.20
2019-03-16T21:45:30.847Z,90.00
2019-03-16T21:48:06.850Z,90.10
2019-03-16T21:50:37.718Z,90.40
2019-03-16T21:53:09.425Z,90.10
2019-03-16T21:55:48.486Z,90.00
2019-03-16T21:58:28.309Z,90.10
2019-03-16T22:01:00.607Z,90.00
2019-03-16T22:03:41.533Z,90.20
2019-03-16T22:06:04.075Z,90.10
2019-03-16T22:08:34.739Z,90.20
2019-03-16T22:11:05.579Z,90.00
2019-03-16T22:13:36.462Z,90.10
2019-03-16T22:16:11.846Z,90.10
2019-03-16T22:18:45.142Z,90.20
2019-03-16T22:21:16.701Z,90.10
2019-03-16T22:23:48.042Z,89.50
2019-03-16T22:26:18.733Z,89.80
2019-03-16T22:28:52.021Z,89.20
2019-03-16T22:31:22.780Z,89.30
2019-03-16T22:33:55.885Z,89.20
2019-03-16T22:36:28.563Z,89.00
2019-03-16T22:38:59.314Z,89.00
2019-03-16T22:41:30.050Z,89.00
2019-03-16T22:44:01.550Z,89.20
2019-03-16T22:46:37.343Z,89.00
2019-03-16T22:49:09.782Z,89.20
2019-03-16T22:51:43.270Z,88.50
2019-03-16T22:54:14.200Z,88.30
2019-03-16T22:56:45.195Z,88.50
2019-03-16T22:59:15.966Z,89.00
2019-03-16T23:01:47.062Z,88.80
2019-03-16T23:04:17.842Z,88.80
2019-03-16T23:06:48.492Z,88.80
2019-03-16T23:09:22.796Z,89.10
2019-03-16T23:11:55.847Z,89.40
2019-03-16T23:14:26.650Z,90.00
2019-03-16T23:17:03.769Z,90.20
2019-03-16T23:19:39.498Z,90.30
2019-03-16T23:22:11.394Z,90.10
2019-03-16T23:24:42.164Z,90.10
2019-03-16T23:27:13.994Z,90.10
2019-03-16T23:29:48.782Z,89.70
2019-03-16T23:32:19.725Z,89.30
2019-03-16T23:34:52.778Z,88.90
2019-03-16T23:37:30.113Z,88.40
2019-03-16T23:40:00.820Z,88.20
2019-03-16T23:42:33.827Z,87.90
2019-03-16T23:45:07.448Z,88.20
2019-03-16T23:47:41.847Z,87.60
2019-03-16T23:50:13.418Z,87.30
2019-03-16T23:52:47.158Z,87.70
2019-03-16T23:55:18.174Z,88.20
2019-03-16T23:57:48.857Z,88.70
